createdAt,value
2018-12-23T00:00:59.055Z,57.40
2018-12-23T00:03:26.618Z,57.40
2018-12-23T00:05:54.150Z,57.50
2018-12-23T00:08:21.702Z,57.20
2018-12-23T00:10:49.246Z,57.40
2018-12-23T00:13:16.803Z,57.20
2018-12-23T00:15:44.529Z,57.30
2018-12-23T00:18:12.110Z,57.30
2018-12-23T00:20:39.773Z,57.10
2018-12-23T00:23:07.332Z,57.20
2018-12-23T00:25:34.862Z,57.30
2018-12-23T00:28:02.418Z,57.90
2018-12-23T00:30:30.007Z,58.10
2018-12-23T00:32:57.635Z,57.20
2018-12-23T00:35:25.184Z,57.20
2018-12-23T00:37:52.706Z,57.50
2018-12-23T00:40:20.453Z,57.50
2018-12-23T00:42:47.990Z,57.30
2018-12-23T00:45:15.598Z,57.40
2018-12-23T00:47:43.117Z,57.30
2018-12-23T00:50:10.746Z,57.30
2018-12-23T00:52:38.515Z,57.40
2018-12-23T00:55:06.129Z,57.40
2018-12-23T00:57:33.697Z,57.40
2018-12-23T01:00:01.241Z,57.40
2018-12-23T01:02:28.789Z,57.60
2018-12-23T01:04:56.360Z,57.30
2018-12-23T01:07:23.994Z,57.30
2018-12-23T01:09:51.545Z,57.10
2018-12-23T01:12:19.091Z,57.20
2018-12-23T01:14:46.650Z,58.00
2018-12-23T01:17:14.193Z,57.20
2018-12-23T01:19:41.753Z,57.50
2018-12-23T01:22:09.309Z,57.30
2018-12-23T01:24:36.860Z,57.50
2018-12-23T01:27:04.451Z,57.30
2018-12-23T01:29:32.686Z,57.30
2018-12-23T01:32:00.209Z,57.30
2018-12-23T01:34:27.782Z,57.60
2018-12-23T01:36:55.423Z,57.50
2018-12-23T01:39:23.087Z,57.40
2018-12-23T01:41:50.779Z,57.50
2018-12-23T01:44:18.312Z,57.30
2018-12-23T01:46:45.862Z,57.60
2018-12-23T01:49:14.364Z,57.60
2018-12-23T01:51:41.930Z,57.30
2018-12-23T01:54:09.469Z,57.50
2018-12-23T01:56:37.063Z,57.50
2018-12-23T01:59:04.626Z,57.40
2018-12-23T02:01:32.179Z,57.40
2018-12-23T02:03:59.743Z,57.40
2018-12-23T02:06:27.268Z,57.40
2018-12-23T02:08:55.123Z,57.30
2018-12-23T02:11:22.647Z,57.30
2018-12-23T02:13:50.151Z,57.70
2018-12-23T02:16:17.725Z,57.30
2018-12-23T02:18:45.273Z,57.60
2018-12-23T02:21:12.836Z,57.60
2018-12-23T02:23:40.395Z,57.60
2018-12-23T02:26:07.935Z,57.30
2018-12-23T02:28:35.465Z,57.50
2018-12-23T02:31:03.041Z,57.70
2018-12-23T02:33:30.539Z,57.50
2018-12-23T02:35:58.103Z,57.50
2018-12-23T02:38:25.615Z,57.30
2018-12-23T02:40:53.174Z,57.50
2018-12-23T02:43:20.822Z,57.30
2018-12-23T02:45:48.355Z,57.50
2018-12-23T02:48:15.991Z,57.20
2018-12-23T02:50:43.537Z,57.20
2018-12-23T02:53:11.150Z,57.30
2018-12-23T02:55:38.797Z,57.50
2018-12-23T02:58:06.310Z,57.50
2018-12-23T03:00:33.869Z,57.40
2018-12-23T03:03:01.399Z,57.60
2018-12-23T03:05:28.958Z,57.30
2018-12-23T03:07:56.511Z,57.40
2018-12-23T03:10:24.061Z,57.30
2018-12-23T03:12:51.600Z,57.40
2018-12-23T03:15:19.256Z,57.20
2018-12-23T03:17:46.818Z,57.30
2018-12-23T03:20:14.504Z,57.20
2018-12-23T03:22:42.191Z,57.30
2018-12-23T03:25:09.725Z,57.60
2018-12-23T03:27:37.336Z,57.50
2018-12-23T03:30:05.693Z,57.80
2018-12-23T03:32:33.255Z,57.20
2018-12-23T03:35:00.775Z,57.40
2018-12-23T03:37:28.405Z,57.60
2018-12-23T03:39:55.932Z,57.50
2018-12-23T03:42:23.499Z,57.20
2018-12-23T03:44:51.038Z,57.30
2018-12-23T03:47:18.596Z,57.40
2018-12-23T03:49:46.149Z,57.40
2018-12-23T03:52:13.689Z,57.20
2018-12-23T03:54:41.209Z,57.50
2018-12-23T03:57:08.767Z,57.30
2018-12-23T03:59:36.426Z,57.60
2018-12-23T04:02:03.980Z,57.50
2018-12-23T04:04:31.497Z,57.30
2018-12-23T04:06:59.106Z,57.40
2018-12-23T04:09:26.662Z,57.30
2018-12-23T04:11:54.243Z,57.40
2018-12-23T04:14:21.781Z,57.50
2018-12-23T04:16:49.335Z,57.20
2018-12-23T04:19:17.931Z,57.30
2018-12-23T04:21:45.504Z,57.50
2018-12-23T04:24:13.108Z,57.50
2018-12-23T04:26:40.667Z,57.50
2018-12-23T04:29:08.226Z,57.70
2018-12-23T04:31:35.760Z,57.50
2018-12-23T04:34:03.329Z,57.50
2018-12-23T04:36:34.184Z,58.40
2018-12-23T04:39:00.374Z,57.70
2018-12-23T04:41:27.938Z,57.50
2018-12-23T04:43:55.498Z,57.50
2018-12-23T04:46:23.217Z,57.80
2018-12-23T04:48:50.720Z,57.50
2018-12-23T04:51:18.283Z,58.20
2018-12-23T04:53:45.892Z,57.80
2018-12-23T04:56:13.421Z,57.50
2018-12-23T04:58:40.953Z,57.50
2018-12-23T05:01:08.506Z,57.60
2018-12-23T05:03:42.482Z,57.50
2018-12-23T05:06:05.607Z,57.80
2018-12-23T05:08:33.135Z,57.60
2018-12-23T05:11:00.847Z,57.60
2018-12-23T05:13:28.389Z,57.50
2018-12-23T05:15:55.948Z,57.50
2018-12-23T05:18:23.496Z,57.60
2018-12-23T05:20:51.028Z,57.60
2018-12-23T05:23:18.577Z,57.50
2018-12-23T05:25:46.782Z,57.50
2018-12-23T05:28:14.303Z,57.60
2018-12-23T05:30:41.925Z,57.40
2018-12-23T05:33:09.463Z,58.00
2018-12-23T05:35:37.110Z,57.60
2018-12-23T05:38:04.742Z,57.50
2018-12-23T05:40:32.315Z,57.70
2018-12-23T05:43:00.003Z,57.40
2018-12-23T05:45:27.502Z,57.20
2018-12-23T05:47:55.062Z,57.50
2018-12-23T05:50:22.670Z,58.20
2018-12-23T05:52:50.208Z,57.50
2018-12-23T05:55:24.806Z,57.60
2018-12-23T05:57:53.047Z,57.60
2018-12-23T06:00:20.665Z,57.50
2018-12-23T06:02:48.271Z,57.50
2018-12-23T06:05:15.782Z,57.50
2018-12-23T06:07:43.334Z,57.50
2018-12-23T06:10:10.886Z,57.50
2018-12-23T06:12:38.489Z,57.40
2018-12-23T06:15:06.246Z,57.30
2018-12-23T06:17:33.797Z,57.30
2018-12-23T06:20:01.354Z,57.40
2018-12-23T06:22:28.913Z,57.60
2018-12-23T06:24:57.144Z,57.40
2018-12-23T06:27:24.741Z,57.30
2018-12-23T06:29:52.408Z,57.30
2018-12-23T06:32:19.965Z,57.60
2018-12-23T06:34:47.509Z,57.40
2018-12-23T06:37:15.053Z,57.30
2018-12-23T06:39:42.626Z,57.30
2018-12-23T06:42:10.182Z,57.80
2018-12-23T06:44:37.792Z,57.50
2018-12-23T06:47:05.467Z,57.40
2018-12-23T06:49:33.026Z,57.60
2018-12-23T06:52:00.575Z,57.30
2018-12-23T06:54:28.163Z,57.30
2018-12-23T06:56:55.839Z,57.50
2018-12-23T06:59:23.359Z,57.40
2018-12-23T07:01:51.068Z,57.30
2018-12-23T07:04:18.675Z,57.20
2018-12-23T07:06:46.215Z,58.00
2018-12-23T07:09:13.770Z,57.30
2018-12-23T07:11:41.395Z,57.50
2018-12-23T07:14:08.917Z,57.40
2018-12-23T07:16:36.484Z,57.20
2018-12-23T07:19:04.018Z,57.60
2018-12-23T07:21:31.671Z,57.40
2018-12-23T07:23:59.209Z,56.70
2018-12-23T07:26:26.768Z,57.40
2018-12-23T07:28:54.338Z,57.30
2018-12-23T07:31:21.883Z,57.60
2018-12-23T07:33:49.437Z,57.40
2018-12-23T07:36:17.102Z,57.70
2018-12-23T07:38:44.621Z,57.50
2018-12-23T07:41:12.182Z,57.40
2018-12-23T07:43:39.754Z,57.40
2018-12-23T07:46:07.284Z,57.50
2018-12-23T07:48:34.794Z,57.60
2018-12-23T07:51:02.354Z,57.70
2018-12-23T07:53:29.871Z,57.70
2018-12-23T07:55:59.310Z,57.60
2018-12-23T07:58:26.979Z,57.60
2018-12-23T08:00:54.510Z,57.50
2018-12-23T08:03:22.159Z,57.50
2018-12-23T08:05:49.726Z,57.50
2018-12-23T08:08:17.271Z,57.50
2018-12-23T08:10:44.831Z,57.50
2018-12-23T08:13:12.362Z,57.70
2018-12-23T08:15:39.920Z,57.70
2018-12-23T08:18:07.462Z,57.60
2018-12-23T08:20:35.967Z,57.40
2018-12-23T08:23:03.788Z,57.50
2018-12-23T08:25:35.607Z,57.50
2018-12-23T08:28:00.886Z,57.60
2018-12-23T08:30:28.410Z,57.50
2018-12-23T08:32:55.996Z,57.50
2018-12-23T08:35:23.544Z,57.50
2018-12-23T08:37:51.106Z,57.50
2018-12-23T08:40:18.671Z,57.60
2018-12-23T08:42:46.204Z,57.80
2018-12-23T08:45:13.818Z,57.80
2018-12-23T08:47:41.407Z,57.50
2018-12-23T08:50:08.960Z,57.70
2018-12-23T08:52:36.499Z,57.60
2018-12-23T08:55:04.236Z,57.50
2018-12-23T08:57:31.778Z,57.80
2018-12-23T08:59:59.316Z,57.60
2018-12-23T09:02:26.897Z,57.60
2018-12-23T09:04:54.438Z,57.80
2018-12-23T09:07:22.120Z,57.60
2018-12-23T09:09:49.670Z,57.80
2018-12-23T09:12:17.187Z,57.60
2018-12-23T09:14:44.748Z,57.70
2018-12-23T09:17:12.409Z,57.90
2018-12-23T09:19:40.031Z,57.50
2018-12-23T09:22:07.753Z,57.20
2018-12-23T09:24:35.571Z,57.50
2018-12-23T09:27:03.129Z,57.30
2018-12-23T09:29:30.694Z,57.50
2018-12-23T09:31:58.886Z,57.60
2018-12-23T09:34:26.456Z,57.20
2018-12-23T09:36:54.733Z,57.70
2018-12-23T09:39:22.283Z,57.50
2018-12-23T09:41:49.853Z,57.40
2018-12-23T09:44:17.433Z,57.40
2018-12-23T09:46:44.963Z,57.20
2018-12-23T09:49:12.514Z,57.20
2018-12-23T09:51:40.123Z,57.00
2018-12-23T09:54:07.773Z,57.00
2018-12-23T09:56:35.304Z,57.00
2018-12-23T09:59:02.865Z,57.10
2018-12-23T10:01:30.493Z,56.80
2018-12-23T10:03:58.074Z,56.80
2018-12-23T10:06:25.680Z,57.10
2018-12-23T10:08:53.305Z,57.10
2018-12-23T10:11:20.857Z,57.80
2018-12-23T10:13:48.517Z,57.10
2018-12-23T10:16:16.135Z,57.10
2018-12-23T10:18:43.653Z,57.00
2018-12-23T10:21:11.252Z,57.10
2018-12-23T10:23:38.805Z,56.90
2018-12-23T10:26:06.350Z,57.00
2018-12-23T10:28:33.951Z,56.80
2018-12-23T10:31:01.572Z,56.90
2018-12-23T10:33:29.099Z,56.70
2018-12-23T10:35:56.623Z,56.60
2018-12-23T10:38:24.260Z,56.70
2018-12-23T10:40:51.775Z,56.90
2018-12-23T10:43:19.374Z,56.50
2018-12-23T10:45:46.914Z,56.40
2018-12-23T10:48:14.461Z,56.40
2018-12-23T10:50:42.003Z,56.60
2018-12-23T10:53:09.565Z,56.40
2018-12-23T10:55:37.138Z,56.40
2018-12-23T10:58:04.692Z,56.50
2018-12-23T11:00:32.261Z,56.60
2018-12-23T11:02:59.855Z,56.60
2018-12-23T11:05:27.429Z,56.50
2018-12-23T11:07:54.989Z,56.90
2018-12-23T11:10:22.569Z,56.70
2018-12-23T11:12:50.131Z,56.70
2018-12-23T11:15:17.682Z,56.70
2018-12-23T11:17:45.230Z,56.50
2018-12-23T11:20:12.789Z,56.70
2018-12-23T11:22:40.367Z,56.70
2018-12-23T11:25:08.035Z,56.90
2018-12-23T11:27:35.731Z,56.80
2018-12-23T11:30:04.800Z,57.70
2018-12-23T11:32:32.350Z,57.10
2018-12-23T11:34:59.920Z,57.50
2018-12-23T11:37:27.633Z,57.50
2018-12-23T11:39:55.215Z,58.00
2018-12-23T11:42:22.724Z,57.80
2018-12-23T11:44:50.291Z,57.70
2018-12-23T11:47:17.859Z,57.80
2018-12-23T11:49:45.394Z,58.00
2018-12-23T11:52:12.977Z,58.00
2018-12-23T11:54:40.522Z,58.00
2018-12-23T11:57:08.060Z,58.70
2018-12-23T11:59:35.807Z,58.10
2018-12-23T12:02:03.318Z,57.90
2018-12-23T12:04:30.881Z,58.30
2018-12-23T12:06:58.438Z,58.20
2018-12-23T12:09:25.966Z,57.80
2018-12-23T12:11:53.534Z,58.10
2018-12-23T12:14:21.079Z,58.00
2018-12-23T12:16:48.662Z,58.10
2018-12-23T12:19:16.185Z,58.10
2018-12-23T12:21:43.770Z,58.00
2018-12-23T12:24:11.280Z,58.20
2018-12-23T12:26:38.839Z,58.60
2018-12-23T12:29:06.387Z,58.00
2018-12-23T12:31:33.962Z,57.90
2018-12-23T12:34:02.394Z,57.90
2018-12-23T12:36:29.999Z,58.10
2018-12-23T12:38:57.544Z,57.90
2018-12-23T12:41:25.174Z,58.00
2018-12-23T12:43:53.869Z,57.80
2018-12-23T12:46:21.426Z,57.80
2018-12-23T12:48:49.013Z,57.80
2018-12-23T12:51:16.835Z,58.00
2018-12-23T12:53:44.493Z,57.80
2018-12-23T12:56:12.055Z,57.60
2018-12-23T12:58:39.665Z,57.70
2018-12-23T13:01:07.291Z,57.70
2018-12-23T13:03:35.033Z,57.50
2018-12-23T13:06:02.607Z,57.70
2018-12-23T13:08:30.179Z,57.80
2018-12-23T13:10:57.741Z,57.80
2018-12-23T13:13:25.313Z,57.90
2018-12-23T13:15:52.866Z,57.90
2018-12-23T13:18:20.543Z,57.80
2018-12-23T13:20:48.221Z,57.80
2018-12-23T13:23:15.829Z,57.80
2018-12-23T13:25:43.359Z,57.90
2018-12-23T13:28:11.942Z,57.90
2018-12-23T13:30:39.528Z,57.90
2018-12-23T13:33:07.094Z,58.00
2018-12-23T13:35:34.651Z,57.80
2018-12-23T13:38:02.248Z,57.60
2018-12-23T13:40:42.201Z,57.50
2018-12-23T13:43:19.412Z,57.50
2018-12-23T13:45:55.433Z,57.20
2018-12-23T13:48:27.004Z,57.50
2018-12-23T13:55:08.809Z,58.00
2018-12-23T13:57:43.239Z,57.50
2018-12-23T14:00:41.920Z,57.20
2018-12-23T14:03:13.664Z,57.60
2018-12-23T14:06:00.497Z,57.60
2018-12-23T14:08:40.779Z,57.80
2018-12-23T14:11:18.427Z,58.00
2018-12-23T14:13:47.235Z,58.10
2018-12-23T14:16:16.024Z,58.00
2018-12-23T14:18:44.985Z,57.90
2018-12-23T14:21:13.801Z,58.00
2018-12-23T14:23:42.558Z,57.90
2018-12-23T14:26:11.378Z,58.00
2018-12-23T14:28:40.193Z,58.20
2018-12-23T14:31:08.982Z,58.20
2018-12-23T14:33:37.817Z,58.10
2018-12-23T14:36:07.552Z,58.10
2018-12-23T14:38:36.346Z,57.80
2018-12-23T14:41:05.212Z,58.30
2018-12-23T14:43:34.085Z,58.30
2018-12-23T14:46:02.919Z,58.10
2018-12-23T14:48:31.711Z,58.30
2018-12-23T14:51:00.570Z,58.10
2018-12-23T14:53:29.374Z,58.30
2018-12-23T14:55:58.151Z,58.20
2018-12-23T14:58:26.947Z,58.20
2018-12-23T15:00:55.770Z,58.10
2018-12-23T15:03:24.603Z,58.00
2018-12-23T15:05:53.410Z,57.80
2018-12-23T15:08:22.208Z,57.40
2018-12-23T15:10:50.987Z,57.70
2018-12-23T15:13:19.806Z,57.40
2018-12-23T15:15:48.579Z,57.50
2018-12-23T15:18:17.374Z,57.50
2018-12-23T15:20:46.268Z,57.50
2018-12-23T15:23:15.132Z,57.10
2018-12-23T15:25:43.912Z,57.20
2018-12-23T15:28:12.699Z,57.50
2018-12-23T15:30:41.535Z,58.60
2018-12-23T15:33:10.317Z,57.90
2018-12-23T15:35:39.127Z,57.90
2018-12-23T15:38:07.895Z,57.50
2018-12-23T15:40:36.708Z,57.50
2018-12-23T15:43:05.540Z,57.60
2018-12-23T15:45:34.309Z,57.30
2018-12-23T15:48:03.072Z,57.40
2018-12-23T15:50:31.907Z,57.30
2018-12-23T15:53:00.700Z,57.30
2018-12-23T15:55:31.306Z,57.40
2018-12-23T15:58:00.087Z,57.10
2018-12-23T16:00:28.890Z,57.40
2018-12-23T16:02:57.688Z,57.40
2018-12-23T16:05:26.502Z,57.30
2018-12-23T16:07:55.291Z,57.60
2018-12-23T16:10:24.107Z,57.30
2018-12-23T16:12:52.891Z,57.20
2018-12-23T16:15:21.697Z,57.20
2018-12-23T16:17:50.478Z,57.40
2018-12-23T16:20:20.220Z,57.20
2018-12-23T16:22:49.029Z,57.60
2018-12-23T16:27:53.775Z,57.10
2018-12-23T16:30:22.756Z,57.70
2018-12-23T16:32:51.659Z,57.40
2018-12-23T16:35:22.093Z,57.30
2018-12-23T16:37:50.983Z,57.20
2018-12-23T16:40:19.814Z,56.90
2018-12-23T16:42:48.644Z,57.00
2018-12-23T16:45:17.435Z,57.00
2018-12-23T16:47:46.256Z,57.10
2018-12-23T16:50:15.052Z,57.00
2018-12-23T16:52:43.880Z,57.20
2018-12-23T16:55:12.693Z,57.00
2018-12-23T16:57:41.542Z,56.90
2018-12-23T17:00:12.941Z,56.80
2018-12-23T17:02:41.744Z,56.80
2018-12-23T17:05:10.573Z,57.00
2018-12-23T17:07:39.417Z,57.20
2018-12-23T17:10:08.642Z,57.00
2018-12-23T17:12:37.593Z,57.00
2018-12-23T17:15:07.312Z,57.40
2018-12-23T17:17:36.204Z,57.40
2018-12-23T17:20:07.865Z,57.00
2018-12-23T17:22:36.669Z,57.20
2018-12-23T17:25:05.786Z,57.40
2018-12-23T17:27:34.621Z,57.20
2018-12-23T17:30:03.603Z,57.20
2018-12-23T17:32:32.589Z,57.20
2018-12-23T17:35:01.684Z,57.30
2018-12-23T17:37:30.505Z,57.10
2018-12-23T17:39:59.318Z,57.10
2018-12-23T17:42:28.135Z,57.20
2018-12-23T17:44:56.933Z,57.10
2018-12-23T17:47:25.748Z,57.10
2018-12-23T17:49:54.573Z,57.30
2018-12-23T17:52:23.654Z,57.70
2018-12-23T17:54:52.615Z,57.50
2018-12-23T17:57:21.479Z,57.90
2018-12-23T17:59:50.313Z,57.80
2018-12-23T18:02:19.161Z,57.50
2018-12-23T18:04:47.950Z,57.40
2018-12-23T18:07:16.764Z,57.60
2018-12-23T18:09:45.578Z,58.40
2018-12-23T18:12:14.418Z,58.30
2018-12-23T18:14:43.453Z,57.80
2018-12-23T18:17:12.296Z,57.50
2018-12-23T18:19:41.088Z,57.60
2018-12-23T18:22:09.875Z,57.50
2018-12-23T18:24:40.205Z,57.50
2018-12-23T18:27:09.002Z,57.50
2018-12-23T18:29:37.830Z,57.60
2018-12-23T18:32:06.647Z,57.20
2018-12-23T18:34:35.473Z,57.60
2018-12-23T18:37:04.376Z,58.00
2018-12-23T18:39:33.194Z,58.00
2018-12-23T18:42:02.018Z,57.50
2018-12-23T18:44:30.864Z,57.50
2018-12-23T18:46:59.713Z,57.20
2018-12-23T18:49:28.551Z,57.70
2018-12-23T18:51:57.374Z,58.00
2018-12-23T18:54:26.199Z,58.20
2018-12-23T18:56:55.031Z,57.90
2018-12-23T18:59:23.822Z,58.00
2018-12-23T19:01:53.651Z,57.80
2018-12-23T19:04:22.489Z,57.90
2018-12-23T19:06:51.335Z,57.80
2018-12-23T19:09:20.707Z,57.80
2018-12-23T19:12:12.231Z,57.80
2018-12-23T19:14:59.100Z,57.90
2018-12-23T19:17:42.932Z,57.80
2018-12-23T19:20:32.531Z,57.60
2018-12-23T19:23:39.298Z,57.80
2018-12-23T19:26:28.908Z,57.60
2018-12-23T19:29:24.521Z,57.60
2018-12-23T19:32:19.937Z,57.60
2018-12-23T19:35:03.398Z,57.50
2018-12-23T19:37:38.037Z,57.50
2018-12-23T19:40:29.613Z,57.50
2018-12-23T19:43:32.020Z,57.60
2018-12-23T19:46:15.884Z,57.40
2018-12-23T19:48:56.668Z,57.80
2018-12-23T19:51:28.406Z,58.30
2018-12-23T19:54:15.365Z,58.40
2018-12-23T19:57:13.092Z,58.40
2018-12-23T19:59:56.549Z,58.20
2018-12-23T20:02:37.983Z,58.10
2018-12-23T20:05:28.071Z,58.80
2018-12-23T20:08:19.551Z,58.30
2018-12-23T20:11:00.677Z,58.30
2018-12-23T20:13:42.483Z,58.30
2018-12-23T20:16:38.298Z,57.90
2018-12-23T20:19:29.724Z,57.80
2018-12-23T20:22:03.081Z,57.80
2018-12-23T20:24:40.829Z,58.00
2018-12-23T20:27:15.581Z,57.90
2018-12-23T20:30:16.334Z,57.80
2018-12-23T20:32:57.081Z,57.60
2018-12-23T20:35:28.876Z,57.50
2018-12-23T20:38:03.578Z,57.40
2018-12-23T20:40:35.422Z,57.40
2018-12-23T20:43:10.261Z,57.50
2018-12-23T20:45:53.609Z,57.40
2018-12-23T20:48:40.696Z,57.70
2018-12-23T20:51:21.112Z,57.40
2018-12-23T20:54:14.590Z,57.70
2018-12-23T20:57:04.405Z,57.80
2018-12-23T20:59:50.531Z,58.30
2018-12-23T21:02:39.071Z,58.30
2018-12-23T21:05:16.883Z,59.10
2018-12-23T21:07:51.515Z,58.30
2018-12-23T21:10:42.966Z,58.40
2018-12-23T21:13:23.898Z,58.30
2018-12-23T21:16:10.734Z,58.40
2018-12-23T21:19:02.400Z,58.30
2018-12-23T21:21:49.349Z,58.30
2018-12-23T21:24:32.223Z,58.00
2018-12-23T21:27:30.086Z,57.80
2018-12-23T21:30:15.644Z,58.30
2018-12-23T21:33:07.809Z,58.20
2018-12-23T21:35:51.721Z,58.20
2018-12-23T21:38:32.482Z,58.20
2018-12-23T21:41:29.713Z,58.30
2018-12-23T21:44:21.522Z,58.10
2018-12-23T21:47:13.174Z,57.80
2018-12-23T21:50:15.497Z,58.10
2018-12-23T21:53:13.418Z,58.00
2018-12-23T21:55:50.773Z,57.90
2018-12-23T21:58:43.925Z,57.80
2018-12-23T22:01:51.789Z,57.80
2018-12-23T22:04:45.686Z,57.90
2018-12-23T22:07:30.436Z,57.90
2018-12-23T22:10:11.359Z,59.20
2018-12-23T22:12:46.557Z,59.30
2018-12-23T22:15:15.384Z,59.30
2018-12-23T22:17:44.276Z,59.10
2018-12-23T22:20:13.134Z,59.20
2018-12-23T22:22:41.979Z,59.20
2018-12-23T22:25:10.818Z,59.30
2018-12-23T22:27:39.688Z,59.30
2018-12-23T22:30:08.482Z,59.20
2018-12-23T22:32:37.338Z,59.30
2018-12-23T22:35:06.177Z,59.10
2018-12-23T22:37:35.100Z,59.50
2018-12-23T22:40:04.342Z,59.80
2018-12-23T22:42:33.176Z,59.30
2018-12-23T22:45:03.735Z,59.50
2018-12-23T22:47:32.547Z,59.80
2018-12-23T22:50:01.406Z,59.70
2018-12-23T22:52:30.297Z,59.80
2018-12-23T22:55:00.259Z,60.00
2018-12-23T22:57:31.895Z,60.20
2018-12-23T23:00:00.707Z,60.80
2018-12-23T23:02:29.571Z,60.50
2018-12-23T23:04:58.972Z,60.90
2018-12-23T23:07:27.779Z,61.10
2018-12-23T23:09:59.187Z,61.00
2018-12-23T23:12:28.812Z,60.60
2018-12-23T23:15:01.493Z,60.40
2018-12-23T23:17:30.446Z,60.30
2018-12-23T23:19:59.436Z,60.70
2018-12-23T23:22:28.317Z,60.70
2018-12-23T23:24:57.143Z,60.40
2018-12-23T23:27:25.934Z,60.50
2018-12-23T23:29:54.751Z,61.30
2018-12-23T23:32:23.677Z,61.10
2018-12-23T23:34:52.509Z,61.20
2018-12-23T23:37:22.805Z,61.20
2018-12-23T23:39:53.185Z,61.30
2018-12-23T23:42:22.204Z,61.50
2018-12-23T23:44:51.033Z,61.50
2018-12-23T23:47:20.032Z,61.60
2018-12-23T23:49:51.341Z,61.70
2018-12-23T23:52:21.631Z,61.80
2018-12-23T23:54:52.016Z,61.70
2018-12-23T23:57:20.986Z,61.60
2018-12-23T23:59:50.906Z,61.80
